Time;durP1;ratioP1;P1;durP2;ratioP2;P2;SDS_P1;SDS_P2;PMS_P1;PMS_P2;Temp;Humidity;BMP_temperature;BMP_pressure;BME280_temperature;BME280_humidity;BME280_pressure;Samples;Min_cycle;Max_cycle;Signal;HPM_P1;HPM_P2
2022/07/05 00:00:56;;;;;;;7.95;1.75;;;21.40;99.90;;;;;;4915173;29;20063;-80
2022/07/05 00:03:22;;;;;;;5.22;1.67;;;21.50;99.90;;;;;;4915405;29;20039;-80
2022/07/05 00:05:48;;;;;;;11.25;2.40;;;21.50;99.90;;;;;;4917191;29;20024;-80
2022/07/05 00:08:13;;;;;;;12.73;2.15;;;21.40;99.90;;;;;;4918772;29;20024;-79
2022/07/05 00:10:39;;;;;;;9.73;1.98;;;21.40;99.90;;;;;;4918551;29;20411;-79
2022/07/05 00:13:06;;;;;;;6.20;1.60;;;21.30;99.90;;;;;;4918776;29;20047;-79
2022/07/05 00:15:32;;;;;;;11.65;2.40;;;21.30;99.90;;;;;;4918941;29;20024;-79
2022/07/05 00:17:58;;;;;;;8.32;2.35;;;21.30;99.90;;;;;;4918855;29;20500;-79
2022/07/05 00:20:24;;;;;;;11.10;2.10;;;21.30;99.90;;;;;;4917448;29;20039;-79
2022/07/05 00:22:50;;;;;;;11.93;2.35;;;21.30;99.90;;;;;;4918320;29;20035;-80
2022/07/05 00:25:15;;;;;;;16.75;2.95;;;21.30;99.90;;;;;;4918586;29;20036;-79
2022/07/05 00:27:41;;;;;;;9.20;2.13;;;21.20;99.90;;;;;;4919077;29;20047;-79
2022/07/05 00:30:08;;;;;;;9.07;1.80;;;21.20;99.90;;;;;;4918026;29;20059;-79
2022/07/05 00:32:34;;;;;;;5.03;1.70;;;21.30;99.90;;;;;;4917266;29;20028;-80
2022/07/05 00:35:00;;;;;;;11.20;2.28;;;21.30;99.90;;;;;;4917210;29;20036;-79
2022/07/05 00:37:25;;;;;;;9.02;1.77;;;21.20;99.90;;;;;;4918552;29;20024;-79
2022/07/05 00:39:51;;;;;;;5.93;1.95;;;21.20;99.90;;;;;;4918469;29;20036;-79
2022/07/05 00:42:17;;;;;;;13.30;2.53;;;21.20;99.90;;;;;;4918294;29;20555;-79
2022/07/05 00:44:43;;;;;;;10.07;2.30;;;21.20;99.90;;;;;;4918529;29;20029;-79
2022/07/05 00:47:11;;;;;;;11.85;2.20;;;21.10;99.90;;;;;;4918413;29;20022;-80
2022/07/05 00:49:38;;;;;;;10.52;1.92;;;21.10;99.90;;;;;;4918359;29;20024;-79
2022/07/05 00:52:05;;;;;;;5.82;1.65;;;21.00;99.90;;;;;;4917554;29;20166;-80
2022/07/05 00:54:34;;;;;;;8.57;2.13;;;21.10;99.90;;;;;;4918413;29;20032;-79
2022/07/05 00:57:00;;;;;;;11.52;2.08;;;21.10;99.90;;;;;;4918051;29;20500;-79
2022/07/05 00:59:27;;;;;;;10.10;1.95;;;21.00;99.90;;;;;;4917836;29;20127;-80
2022/07/05 01:01:53;;;;;;;10.30;2.20;;;21.10;99.90;;;;;;4918188;29;20155;-79
2022/07/05 01:04:19;;;;;;;10.05;2.17;;;21.00;99.90;;;;;;4917789;29;20103;-79
2022/07/05 01:06:46;;;;;;;10.82;1.90;;;20.90;99.90;;;;;;4917486;29;20050;-79
2022/07/05 01:09:15;;;;;;;9.45;2.20;;;20.80;99.90;;;;;;4917894;29;20034;-79
2022/07/05 01:11:46;;;;;;;9.75;1.77;;;20.80;99.90;;;;;;4918084;29;20115;-79
2022/07/05 01:14:17;;;;;;;7.55;1.98;;;21.00;99.90;;;;;;4917923;29;20038;-79
2022/07/05 01:16:43;;;;;;;11.77;2.03;;;20.90;99.90;;;;;;4917783;29;20036;-79
2022/07/05 01:19:14;;;;;;;9.90;2.50;;;21.00;99.90;;;;;;4915590;29;20136;-79
2022/07/05 01:21:42;;;;;;;9.48;2.40;;;21.00;99.90;;;;;;4918087;29;20038;-80
2022/07/05 01:24:09;;;;;;;16.38;2.08;;;21.00;99.90;;;;;;4916648;29;20115;-79
2022/07/05 01:26:37;;;;;;;9.77;1.92;;;21.00;99.90;;;;;;4917823;29;20095;-79
2022/07/05 01:29:02;;;;;;;11.35;2.35;;;20.90;99.90;;;;;;4917648;29;20079;-79
2022/07/05 01:31:28;;;;;;;11.90;2.20;;;20.90;99.90;;;;;;4917588;29;20036;-79
2022/07/05 01:33:54;;;;;;;9.00;1.85;;;20.90;99.90;;;;;;4917180;29;20400;-79
2022/07/05 01:36:20;;;;;;;8.57;1.95;;;20.90;99.90;;;;;;4917393;29;20123;-79
2022/07/05 01:38:46;;;;;;;10.07;2.10;;;20.90;99.90;;;;;;4916212;29;20024;-79
2022/07/05 01:41:12;;;;;;;6.68;1.80;;;20.90;99.90;;;;;;4917355;29;20032;-79
2022/07/05 01:43:37;;;;;;;13.98;2.33;;;20.90;99.90;;;;;;4917790;29;20035;-79
2022/07/05 01:46:05;;;;;;;9.05;1.70;;;20.90;99.90;;;;;;4917149;29;20030;-79
2022/07/05 01:48:33;;;;;;;10.23;2.22;;;20.90;99.90;;;;;;4915626;29;20028;-79
2022/07/05 01:51:29;;;;;;;12.40;2.42;;;20.90;99.90;;;;;;4917247;29;20039;-80
2022/07/05 01:53:55;;;;;;;10.35;2.53;;;20.80;99.90;;;;;;4916906;29;20055;-80
2022/07/05 01:56:21;;;;;;;9.43;2.10;;;20.70;99.90;;;;;;4917100;29;20044;-80
2022/07/05 01:58:47;;;;;;;7.40;1.45;;;20.70;99.90;;;;;;4916697;29;20043;-80
2022/07/05 02:01:13;;;;;;;9.52;2.28;;;20.80;99.90;;;;;;4916796;29;20115;-80
2022/07/05 02:03:43;;;;;;;10.80;1.95;;;20.80;99.90;;;;;;4916725;29;20091;-79
2022/07/05 02:06:10;;;;;;;8.43;2.38;;;20.70;99.90;;;;;;4916830;29;20027;-79
2022/07/05 02:08:36;;;;;;;9.85;1.73;;;20.70;99.90;;;;;;4916408;29;20071;-79
2022/07/05 02:11:03;;;;;;;7.38;2.10;;;20.60;99.90;;;;;;4915861;29;20032;-79
2022/07/05 02:13:29;;;;;;;10.10;2.28;;;20.70;99.90;;;;;;4915443;29;20393;-79
2022/07/05 02:15:55;;;;;;;11.60;2.33;;;20.80;99.90;;;;;;4917204;29;20032;-80
2022/07/05 02:18:20;;;;;;;10.35;1.80;;;20.70;99.90;;;;;;4915047;29;20036;-80
2022/07/05 02:20:46;;;;;;;7.80;2.20;;;20.70;99.90;;;;;;4916545;29;20032;-79
2022/07/05 02:23:12;;;;;;;11.50;2.20;;;20.70;99.90;;;;;;4916484;29;20060;-79
2022/07/05 02:25:38;;;;;;;11.32;2.03;;;20.60;99.90;;;;;;4916746;29;20169;-79
2022/07/05 02:28:04;;;;;;;8.73;2.42;;;20.60;99.90;;;;;;4915906;29;20081;-80
2022/07/05 02:30:30;;;;;;;5.97;1.88;;;20.50;99.90;;;;;;4916687;29;20024;-79
2022/07/05 02:32:55;;;;;;;8.13;1.90;;;20.60;99.90;;;;;;4916423;29;20417;-79
2022/07/05 02:35:21;;;;;;;11.40;2.03;;;20.50;99.90;;;;;;4915806;29;20040;-79
2022/07/05 02:37:47;;;;;;;9.32;2.22;;;20.60;99.90;;;;;;4916206;29;20388;-79
2022/07/05 02:40:13;;;;;;;8.57;2.03;;;20.60;99.90;;;;;;4916307;29;20036;-79
2022/07/05 02:42:40;;;;;;;9.75;2.40;;;20.60;99.90;;;;;;4916961;29;20035;-79
2022/07/05 02:45:07;;;;;;;9.70;1.98;;;20.60;99.90;;;;;;4916198;29;20032;-79
2022/07/05 02:47:34;;;;;;;16.17;3.05;;;20.60;99.90;;;;;;4915682;29;20020;-79
2022/07/05 02:50:10;;;;;;;9.32;2.22;;;20.50;99.90;;;;;;4915889;29;20091;-79
2022/07/05 02:52:35;;;;;;;7.13;2.00;;;20.50;99.90;;;;;;4916098;29;20091;-79
2022/07/05 02:55:03;;;;;;;9.07;2.13;;;20.50;99.90;;;;;;4916372;29;20068;-80
2022/07/05 02:57:28;;;;;;;14.30;2.65;;;20.50;99.90;;;;;;4915698;29;20024;-79
2022/07/05 02:59:55;;;;;;;8.85;2.22;;;20.50;99.90;;;;;;4916071;29;20052;-80
2022/07/05 03:02:22;;;;;;;5.72;2.00;;;20.50;99.90;;;;;;4915388;29;20032;-79
2022/07/05 03:04:47;;;;;;;6.80;2.33;;;20.50;99.90;;;;;;4916048;29;20111;-79
2022/07/05 03:07:13;;;;;;;10.25;2.95;;;20.50;99.90;;;;;;4916244;29;20152;-79
2022/07/05 03:09:39;;;;;;;7.93;2.50;;;20.50;99.90;;;;;;4916018;29;20374;-79
2022/07/05 03:12:05;;;;;;;9.02;2.30;;;20.50;99.90;;;;;;4915990;29;20505;-79
2022/07/05 03:14:31;;;;;;;10.82;2.65;;;20.50;99.90;;;;;;4915920;29;20024;-79
2022/07/05 03:16:56;;;;;;;9.57;2.67;;;20.50;99.90;;;;;;4914759;29;20023;-79
2022/07/05 03:19:22;;;;;;;9.00;3.22;;;20.40;99.90;;;;;;4915741;29;20104;-80
2022/07/05 03:21:48;;;;;;;8.27;2.97;;;20.40;99.90;;;;;;4915955;29;20035;-79
2022/07/05 03:24:13;;;;;;;13.73;2.78;;;20.40;99.90;;;;;;4915720;29;20030;-79
2022/07/05 03:26:39;;;;;;;10.98;3.28;;;20.50;99.90;;;;;;4914668;29;20403;-79
2022/07/05 03:29:05;;;;;;;16.75;3.45;;;20.40;99.90;;;;;;4914687;29;20032;-79
2022/07/05 03:31:31;;;;;;;7.43;3.10;;;20.40;99.90;;;;;;4914863;29;20028;-79
2022/07/05 03:33:56;;;;;;;6.95;2.67;;;20.30;99.90;;;;;;4915839;29;20040;-80
2022/07/05 03:36:22;;;;;;;5.65;2.67;;;20.20;99.90;;;;;;4915526;29;20068;-79
2022/07/05 03:38:48;;;;;;;10.27;3.35;;;20.30;99.90;;;;;;4915874;29;20115;-79
2022/07/05 03:41:13;;;;;;;13.27;3.47;;;20.20;99.90;;;;;;4917976;29;20039;-80
2022/07/05 03:43:39;;;;;;;9.95;3.47;;;20.20;99.90;;;;;;4919016;29;20496;-79
2022/07/05 03:46:05;;;;;;;10.57;3.55;;;20.30;99.90;;;;;;4919062;29;20028;-79
2022/07/05 03:48:31;;;;;;;7.50;2.70;;;20.30;99.90;;;;;;4918884;29;20025;-79
2022/07/05 03:50:56;;;;;;;12.70;3.78;;;20.30;99.90;;;;;;4919556;29;20020;-79
2022/07/05 03:53:22;;;;;;;12.50;2.88;;;20.30;99.90;;;;;;4919270;29;20028;-80
2022/07/05 03:55:48;;;;;;;11.80;3.15;;;20.30;99.90;;;;;;4919195;29;20032;-79
2022/07/05 03:58:14;;;;;;;10.15;3.85;;;20.40;99.90;;;;;;4919415;29;20091;-79
2022/07/05 04:00:39;;;;;;;13.68;3.35;;;20.30;99.90;;;;;;4918639;29;20060;-79
2022/07/05 04:03:05;;;;;;;7.35;3.08;;;20.20;99.90;;;;;;4919250;29;20028;-79
2022/07/05 04:05:31;;;;;;;11.80;3.45;;;20.20;99.90;;;;;;4918668;29;20093;-79
2022/07/05 04:07:56;;;;;;;14.38;3.85;;;20.30;99.90;;;;;;4919311;29;20055;-79
2022/07/05 04:10:23;;;;;;;12.13;3.65;;;20.30;99.90;;;;;;4919190;29;20141;-79
2022/07/05 04:12:49;;;;;;;17.77;3.72;;;20.30;99.90;;;;;;4917984;29;20040;-79
2022/07/05 04:15:15;;;;;;;11.57;3.55;;;20.20;99.90;;;;;;4919456;29;20039;-79
2022/07/05 04:17:54;;;;;;;14.90;4.25;;;20.20;99.90;;;;;;4918422;29;20036;-79
2022/07/05 04:20:21;;;;;;;11.82;3.60;;;20.20;99.90;;;;;;4918392;29;20087;-80
2022/07/05 04:22:48;;;;;;;10.00;3.80;;;20.20;99.90;;;;;;4918868;29;20051;-79
2022/07/05 04:25:18;;;;;;;14.82;4.13;;;20.20;99.90;;;;;;4919046;29;20021;-80
2022/07/05 04:27:51;;;;;;;8.23;3.38;;;20.10;99.90;;;;;;4918583;29;20055;-80
2022/07/05 04:30:19;;;;;;;10.98;2.88;;;20.10;99.90;;;;;;4917426;29;20107;-79
2022/07/05 04:32:45;;;;;;;10.88;3.47;;;20.20;99.90;;;;;;4917939;29;20043;-79
2022/07/05 04:35:12;;;;;;;9.70;3.70;;;20.10;99.90;;;;;;4919028;29;20477;-79
2022/07/05 04:37:39;;;;;;;12.68;3.40;;;20.20;99.90;;;;;;4918320;29;20115;-79
2022/07/05 04:40:06;;;;;;;8.55;3.28;;;20.10;99.90;;;;;;4918928;29;20424;-80
2022/07/05 04:42:33;;;;;;;11.13;3.42;;;20.20;99.90;;;;;;4915158;29;20519;-80
2022/07/05 04:44:58;;;;;;;11.48;3.20;;;20.10;99.90;;;;;;4918212;29;20429;-77
2022/07/05 04:47:27;;;;;;;11.27;3.63;;;20.10;99.90;;;;;;4918054;29;20028;-78
2022/07/05 04:49:54;;;;;;;11.00;3.70;;;20.20;99.90;;;;;;4918026;29;20024;-77
2022/07/05 04:52:19;;;;;;;16.83;4.07;;;20.10;99.90;;;;;;4917453;29;20040;-78
2022/07/05 04:54:45;;;;;;;16.13;4.25;;;20.00;99.90;;;;;;4916913;29;20393;-77
2022/07/05 04:57:11;;;;;;;12.82;3.67;;;20.00;99.90;;;;;;4917527;29;20121;-77
2022/07/05 04:59:37;;;;;;;11.32;4.43;;;20.10;99.90;;;;;;4913842;29;20076;-73
2022/07/05 05:02:03;;;;;;;23.27;3.90;;;20.00;99.90;;;;;;4906781;29;20032;-76
2022/07/05 05:04:28;;;;;;;13.52;3.40;;;20.00;99.90;;;;;;4905569;29;20059;-76
2022/07/05 05:06:54;;;;;;;12.02;3.85;;;20.00;99.90;;;;;;4918019;29;20060;-76
2022/07/05 05:09:20;;;;;;;16.42;3.80;;;19.90;99.90;;;;;;4918283;29;20033;-77
2022/07/05 05:11:46;;;;;;;12.77;3.70;;;19.90;99.90;;;;;;4916436;29;20035;-77
2022/07/05 05:14:12;;;;;;;10.50;3.95;;;19.90;99.90;;;;;;4918552;29;20028;-76
2022/07/05 05:16:38;;;;;;;11.65;3.40;;;19.90;99.90;;;;;;4917953;29;20047;-77
2022/07/05 05:19:04;;;;;;;9.32;4.05;;;20.00;99.90;;;;;;4917535;29;20163;-76
2022/07/05 05:21:30;;;;;;;10.57;3.95;;;20.00;99.90;;;;;;4918452;29;20527;-76
2022/07/05 05:23:55;;;;;;;12.75;4.78;;;19.90;99.90;;;;;;4918251;29;20116;-76
2022/07/05 05:26:21;;;;;;;13.65;4.75;;;19.90;99.90;;;;;;4917918;29;20038;-77
2022/07/05 05:28:47;;;;;;;11.15;4.03;;;19.90;99.90;;;;;;4918190;29;20081;-76
2022/07/05 05:31:12;;;;;;;16.23;3.75;;;19.90;99.90;;;;;;4918440;29;20032;-77
2022/07/05 05:33:38;;;;;;;14.63;3.90;;;19.90;99.90;;;;;;4918136;29;20103;-76
2022/07/05 05:36:04;;;;;;;15.80;4.05;;;20.00;99.90;;;;;;4918345;29;20024;-76
2022/07/05 05:38:29;;;;;;;14.00;5.32;;;20.00;99.90;;;;;;4918089;29;20026;-76
2022/07/05 05:40:55;;;;;;;14.90;4.30;;;20.00;99.90;;;;;;4917477;29;20115;-76
2022/07/05 05:43:21;;;;;;;9.40;4.13;;;19.90;99.90;;;;;;4915786;29;20099;-77
2022/07/05 05:45:46;;;;;;;11.50;3.10;;;20.00;99.90;;;;;;4916335;29;20135;-76
2022/07/05 05:48:12;;;;;;;10.52;3.80;;;20.00;99.90;;;;;;4918315;29;20028;-77
2022/07/05 05:50:38;;;;;;;9.68;3.50;;;20.00;99.90;;;;;;4917754;29;20024;-76
2022/07/05 05:53:04;;;;;;;9.93;3.80;;;20.00;99.90;;;;;;4918381;29;20048;-77
2022/07/05 05:55:31;;;;;;;10.20;3.90;;;20.10;99.90;;;;;;4917174;29;20382;-76
2022/07/05 05:58:13;;;;;;;11.07;3.85;;;20.10;99.90;;;;;;4916571;29;20488;-76
2022/07/05 06:00:39;;;;;;;17.58;4.70;;;20.10;99.90;;;;;;4905338;29;20052;-76
2022/07/05 06:03:05;;;;;;;10.30;3.58;;;20.10;99.90;;;;;;4898081;29;20040;-76
2022/07/05 06:05:31;;;;;;;11.23;3.85;;;20.10;99.90;;;;;;4898715;29;20396;-76
2022/07/05 06:07:56;;;;;;;11.40;3.63;;;20.10;99.90;;;;;;4898107;29;20473;-76
2022/07/05 06:10:28;;;;;;;8.90;3.90;;;20.20;99.90;;;;;;4896508;29;20040;-76
2022/07/05 06:12:56;;;;;;;8.48;3.25;;;20.20;99.90;;;;;;4912306;29;20036;-76
2022/07/05 06:15:22;;;;;;;9.60;3.53;;;20.20;99.90;;;;;;4916271;29;20044;-77
2022/07/05 06:17:48;;;;;;;10.48;3.92;;;20.30;99.90;;;;;;4916972;29;20389;-83
2022/07/05 06:20:20;;;;;;;10.88;3.45;;;20.30;99.90;;;;;;4915581;29;20044;-76
2022/07/05 06:22:47;;;;;;;16.23;4.00;;;20.20;99.90;;;;;;4916013;29;20028;-76
2022/07/05 10:30:06;;;;;;;4.20;1.90;;;29.10;74.90;;;;;;5949286;23;20048;31
2022/07/05 10:32:34;;;;;;;4.60;1.70;;;29.20;71.70;;;;;;4881024;29;20088;-81
2022/07/05 10:35:00;;;;;;;5.55;1.70;;;29.60;71.10;;;;;;4879346;29;20028;-80
2022/07/05 10:37:27;;;;;;;12.23;2.00;;;29.60;68.90;;;;;;4879993;29;20029;-80
2022/07/05 10:39:55;;;;;;;4.55;1.50;;;29.70;68.50;;;;;;4879527;29;20373;-79
2022/07/05 10:42:23;;;;;;;3.08;1.73;;;29.80;67.40;;;;;;4879824;29;20052;-79
2022/07/05 10:44:49;;;;;;;3.05;1.52;;;29.70;68.40;;;;;;4879308;29;20021;-80
2022/07/05 10:47:14;;;;;;;4.93;2.17;;;29.80;68.40;;;;;;4879478;29;20103;-82
2022/07/05 17:02:40;;;;;;;5.10;1.70;;;30.00;57.90;;;;;;5857606;23;20055;-82
2022/07/05 17:05:06;;;;;;;3.72;1.30;;;30.00;58.30;;;;;;4937383;29;20550;-74
2022/07/05 17:07:32;;;;;;;4.20;1.58;;;30.10;58.50;;;;;;4937330;29;20152;-75
2022/07/05 17:09:58;;;;;;;2.88;1.20;;;30.10;58.50;;;;;;4937682;29;20024;-75
2022/07/05 17:12:24;;;;;;;5.40;1.38;;;30.00;58.60;;;;;;4937456;29;20032;-76
2022/07/05 17:14:49;;;;;;;4.43;1.23;;;29.90;58.00;;;;;;4937489;29;20404;-76
2022/07/05 17:17:15;;;;;;;4.22;1.70;;;29.90;58.60;;;;;;4936986;29;20031;-74
2022/07/05 17:19:41;;;;;;;8.00;2.22;;;29.80;58.70;;;;;;4937262;29;20024;-75
2022/07/05 17:22:06;;;;;;;6.25;1.40;;;29.70;58.70;;;;;;4937591;29;20027;-76
2022/07/05 17:24:32;;;;;;;5.35;1.45;;;29.60;59.20;;;;;;4936439;29;20083;-75
2022/07/05 17:26:58;;;;;;;10.32;1.38;;;29.30;59.00;;;;;;4936414;29;20038;-81
2022/07/05 17:29:24;;;;;;;5.35;1.83;;;29.20;59.60;;;;;;4936743;29;20107;-79
2022/07/05 17:31:50;;;;;;;5.72;1.60;;;29.20;59.20;;;;;;4933082;29;20546;-79
2022/07/05 17:34:16;;;;;;;2.85;1.23;;;29.30;59.20;;;;;;4936593;29;20044;-79
2022/07/05 17:36:45;;;;;;;6.07;1.65;;;29.30;59.20;;;;;;4935019;29;20046;-79
2022/07/05 17:39:10;;;;;;;9.27;1.70;;;29.30;59.20;;;;;;4933513;29;20632;-79
2022/07/05 17:41:36;;;;;;;4.88;1.95;;;29.20;59.20;;;;;;4936770;29;20027;-79
2022/07/05 17:44:04;;;;;;;6.57;1.77;;;29.30;59.50;;;;;;4935971;29;20020;-79
2022/07/05 17:46:30;;;;;;;6.97;2.20;;;29.30;59.10;;;;;;4935926;29;20019;-78
2022/07/05 17:48:56;;;;;;;6.85;1.65;;;29.10;58.60;;;;;;4935428;29;20016;-79
2022/07/05 17:51:21;;;;;;;8.35;2.40;;;29.10;57.50;;;;;;4935426;29;20038;-79
2022/07/05 17:53:47;;;;;;;8.25;2.22;;;29.00;58.60;;;;;;4936011;29;20032;-79
2022/07/05 17:56:13;;;;;;;5.60;1.83;;;29.00;58.60;;;;;;4935260;29;20619;-79
2022/07/05 17:58:40;;;;;;;5.45;1.20;;;28.90;58.80;;;;;;4935078;29;20023;-78
2022/07/05 18:01:06;;;;;;;3.92;1.60;;;28.70;58.70;;;;;;4934514;29;20043;-79
2022/07/05 18:03:31;;;;;;;4.05;1.50;;;28.60;58.60;;;;;;4933480;29;20472;-79
2022/07/05 18:05:57;;;;;;;8.85;1.50;;;28.60;58.20;;;;;;4935045;29;20404;-78
2022/07/05 18:08:23;;;;;;;4.45;1.58;;;28.70;58.50;;;;;;4935887;29;20046;-79
2022/07/05 18:10:49;;;;;;;8.38;1.77;;;28.70;58.60;;;;;;4936367;29;20091;-78
2022/07/05 18:13:14;;;;;;;4.40;1.25;;;28.70;58.70;;;;;;4935894;29;20142;-79
2022/07/05 18:15:40;;;;;;;9.68;1.73;;;28.70;58.70;;;;;;4935712;29;20468;-79
2022/07/05 18:18:07;;;;;;;5.90;1.70;;;28.70;58.80;;;;;;4935369;29;20055;-79
2022/07/05 18:20:34;;;;;;;7.28;1.55;;;28.60;59.00;;;;;;4934858;29;20042;-79
2022/07/05 18:22:59;;;;;;;8.93;1.58;;;28.50;59.00;;;;;;4936006;29;20024;-79
2022/07/05 18:25:25;;;;;;;6.85;1.60;;;28.40;59.30;;;;;;4936146;29;20410;-79
2022/07/05 18:27:51;;;;;;;6.15;1.40;;;28.30;59.20;;;;;;4936109;29;20027;-79
2022/07/05 18:30:17;;;;;;;5.38;1.23;;;28.20;59.10;;;;;;4935113;29;20368;-77
2022/07/05 18:32:44;;;;;;;6.03;1.50;;;28.30;59.60;;;;;;4935535;29;20111;-79
2022/07/05 18:35:11;;;;;;;6.03;1.65;;;28.20;59.40;;;;;;4940502;29;20024;-80
2022/07/05 18:37:36;;;;;;;5.63;1.27;;;28.10;59.60;;;;;;4933808;29;20098;-80
2022/07/05 18:40:04;;;;;;;4.90;1.50;;;28.10;59.60;;;;;;4922108;29;20480;-80
2022/07/05 18:42:30;;;;;;;3.78;1.30;;;28.00;60.40;;;;;;4922354;29;20602;-79
2022/07/05 18:44:56;;;;;;;4.10;1.20;;;28.00;60.20;;;;;;4930519;29;20035;-81
2022/07/05 18:47:21;;;;;;;3.13;1.27;;;28.00;60.40;;;;;;4932845;29;20024;-80
2022/07/05 18:49:47;;;;;;;6.53;1.50;;;27.90;60.40;;;;;;4921541;29;20040;-79
2022/07/05 18:52:13;;;;;;;7.78;1.40;;;27.80;59.40;;;;;;4921144;29;20147;-81
2022/07/05 18:54:38;;;;;;;3.95;1.23;;;27.70;58.50;;;;;;4932024;29;20028;-78
2022/07/05 18:57:04;;;;;;;2.28;1.10;;;27.70;58.80;;;;;;4932962;29;20030;-78
2022/07/05 18:59:30;;;;;;;5.78;1.58;;;27.60;58.20;;;;;;4932278;29;20155;-78
2022/07/05 19:01:56;;;;;;;3.05;0.98;;;27.50;58.70;;;;;;4922861;29;20024;-79
2022/07/05 19:04:21;;;;;;;3.92;1.15;;;27.50;58.90;;;;;;4921712;29;20051;-78
2022/07/05 19:15:00;;;;;;;9.38;1.27;;;27.30;59.10;;;;;;4917534;29;20452;-78
2022/07/05 19:17:27;;;;;;;7.60;1.00;;;27.20;58.60;;;;;;4918268;29;20032;-78
2022/07/05 19:19:52;;;;;;;2.72;0.80;;;27.20;57.90;;;;;;4918144;29;20028;-79
2022/07/05 19:22:22;;;;;;;2.83;0.90;;;27.20;57.60;;;;;;4917318;29;20084;-84
2022/07/05 19:24:48;;;;;;;2.08;1.13;;;27.10;57.60;;;;;;4930501;29;20024;-89
2022/07/05 19:27:14;;;;;;;6.78;1.38;;;27.10;57.60;;;;;;4931599;29;20031;-84
2022/07/05 19:29:40;;;;;;;5.70;1.10;;;27.00;57.90;;;;;;4925786;29;20071;-90
2022/07/05 19:32:06;;;;;;;1.85;0.70;;;26.90;57.70;;;;;;4924646;29;20024;-79
2022/07/05 19:34:32;;;;;;;5.35;1.00;;;26.90;57.40;;;;;;4931689;29;20075;-79
2022/07/05 19:36:58;;;;;;;2.58;0.93;;;26.80;57.40;;;;;;4931251;29;20476;-81
2022/07/05 19:39:23;;;;;;;3.65;1.00;;;26.80;58.10;;;;;;4915075;29;20086;-80
2022/07/05 19:41:49;;;;;;;3.22;1.10;;;26.80;57.50;;;;;;4915727;29;20036;-77
2022/07/05 19:44:15;;;;;;;1.98;1.00;;;26.70;56.90;;;;;;4916401;29;20075;-77
2022/07/05 19:46:41;;;;;;;4.10;0.90;;;26.70;56.90;;;;;;4918461;29;20039;-77
2022/07/05 19:49:07;;;;;;;5.55;1.40;;;26.70;57.40;;;;;;4917535;29;20392;-77
2022/07/05 19:51:32;;;;;;;2.70;1.20;;;26.60;57.40;;;;;;4918262;29;20039;-78
2022/07/05 19:53:58;;;;;;;4.07;1.00;;;26.50;57.30;;;;;;4918539;29;20079;-78
2022/07/05 19:56:24;;;;;;;1.55;1.00;;;26.50;57.50;;;;;;4914528;29;20123;-78
2022/07/05 19:58:49;;;;;;;2.40;1.10;;;26.50;57.20;;;;;;4932865;29;20028;-77
2022/07/05 20:01:15;;;;;;;3.72;0.93;;;26.40;57.20;;;;;;4934529;29;20032;-78
2022/07/05 20:03:41;;;;;;;2.92;1.20;;;26.30;56.80;;;;;;4933770;29;20039;-78
2022/07/05 20:06:07;;;;;;;3.17;0.93;;;26.30;56.90;;;;;;4934170;29;20487;-78
2022/07/05 20:08:33;;;;;;;2.00;0.95;;;26.20;56.60;;;;;;4927367;29;20021;-77
2022/07/05 20:10:59;;;;;;;3.85;1.00;;;26.20;56.70;;;;;;4927276;29;20059;-78
2022/07/05 20:13:25;;;;;;;2.10;0.70;;;26.20;57.00;;;;;;4932370;29;20035;-78
2022/07/05 20:15:51;;;;;;;3.72;0.95;;;26.20;56.40;;;;;;4920773;29;20036;-79
2022/07/05 20:18:17;;;;;;;3.05;0.98;;;26.20;56.40;;;;;;4928642;29;20083;-81
2022/07/05 20:20:47;;;;;;;3.67;1.00;;;26.20;56.50;;;;;;4932155;29;20487;-78
2022/07/05 20:23:12;;;;;;;3.78;1.00;;;26.10;56.20;;;;;;4936055;29;20083;-76
2022/07/05 20:25:38;;;;;;;5.55;1.20;;;26.10;56.20;;;;;;4935909;29;20039;-76
2022/07/05 20:28:04;;;;;;;3.53;0.80;;;26.00;56.20;;;;;;4936326;29;20020;-77
2022/07/05 20:30:30;;;;;;;4.13;0.82;;;26.00;55.70;;;;;;4937344;29;20431;-76
2022/07/05 20:32:55;;;;;;;5.15;0.90;;;26.00;55.60;;;;;;4937522;29;20427;-77
2022/07/05 20:35:21;;;;;;;3.60;0.90;;;26.00;56.30;;;;;;4937815;29;20132;-76
2022/07/05 20:37:47;;;;;;;1.70;0.70;;;26.00;55.90;;;;;;4937724;29;20103;-77
2022/07/05 20:40:13;;;;;;;11.10;1.00;;;25.90;56.00;;;;;;4937652;29;20042;-76
2022/07/05 20:42:38;;;;;;;6.95;1.30;;;25.90;56.10;;;;;;4937501;29;20028;-77
2022/07/05 20:45:05;;;;;;;2.83;1.33;;;25.90;55.80;;;;;;4937454;29;20039;-77
2022/07/05 20:47:31;;;;;;;2.30;0.98;;;25.90;55.40;;;;;;4937580;29;20095;-76
2022/07/05 20:49:57;;;;;;;4.30;0.90;;;25.80;55.40;;;;;;4937604;29;20027;-76
2022/07/05 20:52:24;;;;;;;5.93;1.55;;;25.80;55.50;;;;;;4937618;29;20023;-77
2022/07/05 20:54:50;;;;;;;3.00;1.10;;;25.70;55.20;;;;;;4936913;29;20023;-77
2022/07/05 20:57:16;;;;;;;2.83;0.98;;;25.70;55.50;;;;;;4937514;29;20475;-77
2022/07/05 20:59:42;;;;;;;5.10;1.05;;;25.70;55.50;;;;;;4936284;29;20127;-77
2022/07/05 21:02:08;;;;;;;5.40;1.17;;;25.70;55.70;;;;;;4937190;29;20032;-76
2022/07/05 21:04:34;;;;;;;2.63;0.70;;;25.70;56.00;;;;;;4926970;29;20423;-77
2022/07/05 21:07:00;;;;;;;3.88;0.80;;;25.60;55.70;;;;;;4918237;29;20029;-76
2022/07/05 21:09:25;;;;;;;4.63;1.23;;;25.60;55.80;;;;;;4917907;29;20495;-76
2022/07/05 21:11:51;;;;;;;4.70;1.23;;;25.50;56.50;;;;;;4936785;29;20570;-76
2022/07/05 21:14:17;;;;;;;3.42;1.00;;;25.50;56.20;;;;;;4936481;29;20036;-76
2022/07/05 21:16:42;;;;;;;3.67;0.73;;;25.50;56.20;;;;;;4936597;29;20402;-77
2022/07/05 21:19:08;;;;;;;7.43;1.13;;;25.50;56.50;;;;;;4937124;29;20031;-76
2022/07/05 21:21:34;;;;;;;3.45;1.00;;;25.50;56.60;;;;;;4936461;29;20114;-77
2022/07/05 21:24:00;;;;;;;1.88;0.90;;;25.40;56.60;;;;;;4936442;29;20070;-76
2022/07/05 21:26:26;;;;;;;1.90;0.90;;;25.40;57.10;;;;;;4936287;29;20047;-77
2022/07/05 21:28:51;;;;;;;2.58;1.00;;;25.40;57.00;;;;;;4936255;29;20024;-76
2022/07/05 21:31:17;;;;;;;2.25;0.90;;;25.30;57.10;;;;;;4936866;29;20023;-77
2022/07/05 21:33:43;;;;;;;2.17;0.80;;;25.30;57.30;;;;;;4936444;29;20052;-77
2022/07/05 21:36:09;;;;;;;2.75;1.10;;;25.20;57.10;;;;;;4936616;29;20028;-76
2022/07/05 21:38:34;;;;;;;5.38;0.80;;;25.20;57.50;;;;;;4936692;29;20035;-77
2022/07/05 21:41:00;;;;;;;5.10;0.70;;;25.20;57.40;;;;;;4934822;29;20024;-77
2022/07/05 21:43:25;;;;;;;3.88;0.85;;;25.20;57.70;;;;;;4936804;29;20039;-76
2022/07/05 21:45:51;;;;;;;1.45;0.70;;;25.20;57.30;;;;;;4936249;29;20440;-76
2022/07/05 21:48:17;;;;;;;1.95;0.75;;;25.10;57.90;;;;;;4936436;29;20023;-77
2022/07/05 21:50:43;;;;;;;11.57;0.80;;;25.10;58.20;;;;;;4936757;29;20027;-76
2022/07/05 21:53:08;;;;;;;9.63;0.90;;;25.00;57.80;;;;;;4935534;29;20108;-76
2022/07/05 21:55:34;;;;;;;5.50;1.20;;;25.00;57.90;;;;;;4936378;29;20114;-77
2022/07/05 21:58:00;;;;;;;2.00;0.73;;;25.00;58.10;;;;;;4936280;29;20088;-77
2022/07/05 22:05:55;;;;;;;3.25;0.88;;;24.90;58.80;;;;;;4936126;29;20031;-76
2022/07/05 22:08:21;;;;;;;1.55;0.70;;;24.80;58.70;;;;;;4934816;29;20035;-76
2022/07/05 22:10:46;;;;;;;2.80;0.85;;;24.80;58.90;;;;;;4935718;29;20103;-76
2022/07/05 22:13:12;;;;;;;2.33;0.65;;;24.70;59.10;;;;;;4935806;29;20067;-76
2022/07/05 22:15:38;;;;;;;1.73;0.80;;;24.70;59.10;;;;;;4935984;29;20028;-76
2022/07/05 22:18:04;;;;;;;3.88;0.82;;;24.70;59.60;;;;;;4935695;29;20038;-76
2022/07/05 22:20:30;;;;;;;4.82;1.10;;;24.60;59.40;;;;;;4935656;29;20028;-76
2022/07/05 22:22:56;;;;;;;2.13;0.88;;;24.60;59.50;;;;;;4935514;29;20041;-76
2022/07/05 22:25:22;;;;;;;3.05;0.90;;;24.60;59.40;;;;;;4936220;29;20023;-77
2022/07/05 22:27:48;;;;;;;1.63;0.65;;;24.60;59.40;;;;;;4935291;29;20083;-76
2022/07/05 22:30:13;;;;;;;1.98;0.70;;;24.60;59.90;;;;;;4935517;29;20399;-77
2022/07/05 22:32:40;;;;;;;1.75;0.70;;;24.50;60.00;;;;;;4935666;29;20527;-76
2022/07/05 22:35:06;;;;;;;1.98;0.80;;;24.50;60.60;;;;;;4935259;29;20027;-76
2022/07/05 22:37:41;;;;;;;3.05;0.82;;;24.40;60.80;;;;;;4935655;29;20028;-77
2022/07/05 22:40:08;;;;;;;2.55;1.15;;;24.40;60.30;;;;;;4935310;29;20031;-77
2022/07/05 22:42:34;;;;;;;5.05;0.90;;;24.30;60.50;;;;;;4935494;29;20115;-76
2022/07/05 22:44:59;;;;;;;3.70;1.00;;;24.30;60.50;;;;;;4934362;29;20532;-77
2022/07/05 22:47:25;;;;;;;1.80;0.73;;;24.30;61.00;;;;;;4935851;29;20491;-76
2022/07/05 22:49:50;;;;;;;4.47;0.93;;;24.30;60.50;;;;;;4934874;29;20027;-77
2022/07/05 22:52:16;;;;;;;8.15;1.05;;;24.30;60.60;;;;;;4935056;29;20038;-76
2022/07/05 22:54:42;;;;;;;3.22;0.82;;;24.20;60.40;;;;;;4935010;29;20534;-76
2022/07/05 22:57:07;;;;;;;3.92;0.85;;;24.10;60.60;;;;;;4935251;29;20566;-76
2022/07/05 22:59:33;;;;;;;2.40;1.00;;;24.10;60.90;;;;;;4935252;29;20031;-76
2022/07/05 23:01:59;;;;;;;3.58;0.75;;;24.00;60.70;;;;;;4934974;29;20506;-76
2022/07/05 23:04:24;;;;;;;3.90;0.90;;;24.00;61.10;;;;;;4934745;29;20044;-76
2022/07/05 23:06:50;;;;;;;2.95;0.80;;;24.00;61.30;;;;;;4934914;29;20118;-76
2022/07/05 23:09:16;;;;;;;3.10;1.02;;;24.00;61.40;;;;;;4934900;29;20079;-76